York Beach, Maine
Current Conditions -  °F | °C
As of 12:58 AM on Sunday 23 Nov 2014 (Local Time) from KPSM Reporting Station
Overcast Overcast  
Wind Chill: 32°   Ceiling: 11000
Heat Index: 38°   Visibility: 10mi
Dew Point: 19°   Wind: 8mph
Humidity: 45%   Direction: 230°SW
Pressure: 30"   Gusts: NA
Location:  43.17°N, 70.61°W
Report Text: KPSM 230558Z 23007KT 10SM BKN110 OVC140 04/M07 A3000 RMK AO2A SLP163 T00351075 10047 20027 58001
Loading
Personal Weather Stations






























Interactive Weather Map New forecast layout! Learn more

10-Day Weather Forecast

Advertisements
Track Severe Weather on mobile